http://www.privatejetfinder.com

 

Airport Name : Slave Lake

Other Name : Slave Lake

ICAO : CYZH

IATA : YZH

FAA :

Latitude : 55.293056

Longitude : -114.777222

Country : Canada

Local Date and Time : 21 Jan 2020 19:18

 

TAF (Terminal Aerodrome Forecast)

TAF CYZH 220038Z 2201/2213 12006KT P6SM FEW060 SCT120 BKN240 FM220400 12010KT P6SM SCT060 BKN100 TEMPO 2204/2207 5SM -SN OVC050 FM220700 12010KT 2SM -SN VV015 RMK FCST BASED ON AUTO OBS. NXT FCST BY 220700Z

 

METAR (METeorological Aerodrome Report)

CYZH 220200Z AUTO 00000KT 9SM BKN095 M08/M09 A2959 RMK SLP060

CYZH 220100Z AUTO 16003KT 9SM CLR M07/M08 A2961 RMK SLP061

CYZH 220000Z AUTO 19003KT 9SM CLR M06/M07 A2962 RMK SLP064

CYZH 212300Z AUTO VRB02KT 9SM CLR M05/M05 A2962 RMK SLP067

To Charter a Jet Click here.